Terminal Aerodrome Forecast
Issued by NWS Knoxville/Tri Cities, TN

Home | Current Version | Previous Version | Text Only | Print | Product List | Glossary On
Versions: 1 2 3 4 5 6 7 8 9 10 11 12 13 14 15 16 17 18 19 20 21 22 23 24
000
FTUS44 KMRX 021124
TAFTRI
TAF
KTRI 021124Z 0212/0312 00000KT 2SM BR SCT007 OVC015
      TEMPO 0212/0214 3/4SM -RA BR BKN007 OVC015
     FM021400 31005KT P6SM OVC015
     FM021700 34006KT P6SM BKN035
     FM021900 34005KT P6SM SCT250
     FM030100 00000KT P6SM SCT200
     FM030400 00000KT P6SM BKN035
     FM030900 00000KT 4SM BR OVC025=

USA.gov is the U.S. government's official web portal to all federal, state and local government web resources and services.